Time;durP1;ratioP1;P1;durP2;ratioP2;P2;SDS_P1;SDS_P2;PMS_P1;PMS_P2;Temp;Humidity;BMP_temperature;BMP_pressure;BME280_temperature;BME280_humidity;BME280_pressure;Samples;Min_cycle;Max_cycle;Signal;HPM_P1;HPM_P2
2023/09/09 00:02:39;;;;;;;10.63;7.07;;;17.80;99.90;;;;;;4986095;28;20575;-73
2023/09/09 00:05:29;;;;;;;15.37;7.67;;;17.80;99.90;;;;;;4985236;28;20455;-74
2023/09/09 00:08:16;;;;;;;7.73;6.93;;;17.80;99.90;;;;;;4982361;28;20500;-73
2023/09/09 00:11:03;;;;;;;9.60;7.50;;;17.80;99.90;;;;;;4977718;28;20491;-74
2023/09/09 00:13:48;;;;;;;13.53;8.03;;;17.70;99.90;;;;;;4984026;28;20483;-74
2023/09/09 00:16:35;;;;;;;10.90;7.50;;;17.70;99.90;;;;;;4980770;28;20418;-74
2023/09/09 00:19:21;;;;;;;9.50;7.63;;;17.70;99.90;;;;;;4981564;28;20491;-73
2023/09/09 00:22:07;;;;;;;7.63;6.60;;;17.70;99.90;;;;;;4982369;28;20608;-74
2023/09/09 00:24:52;;;;;;;11.33;7.70;;;17.70;99.90;;;;;;4981480;28;20483;-74
2023/09/09 00:27:39;;;;;;;8.83;6.27;;;17.70;99.90;;;;;;4985640;28;20484;-73
2023/09/09 00:30:25;;;;;;;12.50;7.17;;;17.60;99.90;;;;;;4980367;28;20473;-75
2023/09/09 00:33:10;;;;;;;8.60;7.77;;;17.50;99.90;;;;;;4982258;28;20600;-74
2023/09/09 00:36:00;;;;;;;10.70;7.87;;;17.50;99.90;;;;;;4982449;28;20439;-73
2023/09/09 00:38:46;;;;;;;9.33;7.47;;;17.50;99.90;;;;;;4979749;28;20448;-74
2023/09/09 00:41:32;;;;;;;9.13;7.03;;;17.50;99.90;;;;;;4985065;28;20464;-74
2023/09/09 00:44:19;;;;;;;8.30;6.20;;;17.50;99.90;;;;;;4982083;28;20469;-74
2023/09/09 00:47:05;;;;;;;7.53;6.60;;;17.50;99.90;;;;;;4984019;28;20575;-74
2023/09/09 00:49:51;;;;;;;9.30;6.70;;;17.50;99.90;;;;;;4987664;28;21033;-73
2023/09/09 00:52:38;;;;;;;8.50;6.70;;;17.60;99.90;;;;;;4982527;28;20859;-74
2023/09/09 00:55:27;;;;;;;11.60;7.20;;;17.60;99.90;;;;;;4986834;28;20809;-73
2023/09/09 00:58:13;;;;;;;8.03;6.37;;;17.60;99.90;;;;;;4981907;28;20443;-73
2023/09/09 01:01:02;;;;;;;8.13;6.33;;;17.60;99.90;;;;;;4984915;28;20565;-73
2023/09/09 01:03:53;;;;;;;7.03;6.23;;;17.60;99.90;;;;;;4984500;28;20445;-75
2023/09/09 01:06:39;;;;;;;7.80;6.57;;;17.50;99.90;;;;;;4985965;28;20427;-74
2023/09/09 01:09:25;;;;;;;7.30;5.73;;;17.60;99.90;;;;;;4985541;28;20444;-73
2023/09/09 01:12:11;;;;;;;8.10;6.93;;;17.50;99.90;;;;;;4985501;28;20599;-74
2023/09/09 01:14:57;;;;;;;8.30;6.17;;;17.50;99.90;;;;;;4982758;28;20444;-73
2023/09/09 01:17:44;;;;;;;9.50;6.80;;;17.50;99.90;;;;;;4985073;28;20897;-73
2023/09/09 01:20:31;;;;;;;11.70;6.70;;;17.40;99.90;;;;;;4981089;28;20821;-73
2023/09/09 01:23:19;;;;;;;10.10;6.90;;;17.30;99.90;;;;;;4982494;28;20977;-73
2023/09/09 01:26:05;;;;;;;7.40;6.00;;;17.30;99.90;;;;;;4986486;28;20471;-74
2023/09/09 01:28:51;;;;;;;7.77;6.83;;;17.20;99.90;;;;;;4984397;28;20460;-75
2023/09/09 01:31:36;;;;;;;9.20;6.97;;;17.10;99.90;;;;;;4982293;28;20471;-73
2023/09/09 01:34:22;;;;;;;10.67;6.23;;;17.10;99.90;;;;;;4982199;28;20461;-74
2023/09/09 01:37:08;;;;;;;8.10;6.20;;;17.00;99.90;;;;;;4984232;28;20455;-74
2023/09/09 01:39:55;;;;;;;8.50;6.67;;;17.00;99.90;;;;;;4978823;28;20438;-74
2023/09/09 01:42:41;;;;;;;10.93;7.50;;;17.00;99.90;;;;;;4981279;28;20516;-74
2023/09/09 01:45:26;;;;;;;12.67;7.53;;;17.00;99.90;;;;;;4981614;28;20478;-75
2023/09/09 01:48:12;;;;;;;7.40;6.20;;;16.90;99.90;;;;;;4986748;28;20515;-74
2023/09/09 01:50:58;;;;;;;7.97;7.17;;;16.90;99.90;;;;;;5017751;22;21014;-69
2023/09/09 01:53:44;;;;;;;8.30;6.80;;;16.90;99.90;;;;;;4999977;28;20459;-71
2023/09/09 01:56:31;;;;;;;7.93;7.13;;;17.00;99.90;;;;;;4994290;28;20550;-71
2023/09/09 01:59:16;;;;;;;8.27;6.50;;;17.00;99.90;;;;;;4995654;28;20423;-71
2023/09/09 02:02:02;;;;;;;9.20;6.80;;;16.90;99.90;;;;;;4994721;28;20469;-71
2023/09/09 02:04:48;;;;;;;7.70;6.83;;;17.00;99.90;;;;;;4987959;28;20438;-71
2023/09/09 02:07:33;;;;;;;9.70;6.37;;;17.00;99.90;;;;;;4985416;28;20451;-72
2023/09/09 02:10:19;;;;;;;8.30;6.30;;;17.10;99.90;;;;;;4989357;28;20439;-71
2023/09/09 02:13:06;;;;;;;8.13;6.30;;;17.10;99.90;;;;;;4987218;28;21114;-70
2023/09/09 02:15:52;;;;;;;6.90;6.07;;;17.10;99.90;;;;;;4981841;28;20428;-71
2023/09/09 02:18:39;;;;;;;13.67;6.00;;;17.10;99.90;;;;;;4988479;28;20957;-72
2023/09/09 02:21:25;;;;;;;9.47;6.10;;;17.00;99.90;;;;;;4988206;28;20454;-71
2023/09/09 02:24:11;;;;;;;12.30;6.77;;;17.00;99.90;;;;;;4987120;28;20443;-71
2023/09/09 02:26:57;;;;;;;8.10;5.50;;;16.90;99.90;;;;;;4986952;28;20523;-72
2023/09/09 02:29:44;;;;;;;7.83;6.40;;;16.90;99.90;;;;;;4985709;28;20450;-71
2023/09/09 02:32:30;;;;;;;12.33;6.53;;;16.80;99.90;;;;;;4990432;28;20771;-71
2023/09/09 02:35:15;;;;;;;8.23;6.27;;;16.70;99.90;;;;;;4988089;28;20577;-71
2023/09/09 02:38:01;;;;;;;9.57;5.80;;;16.70;99.90;;;;;;4987922;28;20669;-71
2023/09/09 02:40:47;;;;;;;9.03;6.17;;;16.50;99.90;;;;;;4986000;28;20456;-71
2023/09/09 02:43:33;;;;;;;7.33;6.50;;;16.50;99.90;;;;;;4987930;28;20418;-71
2023/09/09 02:46:21;;;;;;;8.33;7.27;;;16.40;99.90;;;;;;4984671;28;20588;-71
2023/09/09 02:49:07;;;;;;;10.57;6.80;;;16.30;99.90;;;;;;4983824;28;20986;-71
2023/09/09 02:51:53;;;;;;;12.40;6.90;;;16.30;99.90;;;;;;4989294;28;20555;-71
2023/09/09 02:54:40;;;;;;;8.97;7.20;;;16.30;99.90;;;;;;4988361;28;20432;-71
2023/09/09 02:57:25;;;;;;;9.87;7.57;;;16.30;99.90;;;;;;4985705;28;20430;-71
2023/09/09 03:00:13;;;;;;;11.77;6.20;;;16.20;99.90;;;;;;4981705;28;20957;-71
2023/09/09 03:03:00;;;;;;;10.00;7.63;;;16.20;99.90;;;;;;4986709;28;20603;-71
2023/09/09 03:05:45;;;;;;;9.77;7.20;;;16.20;99.90;;;;;;4988827;28;20807;-71
2023/09/09 03:08:31;;;;;;;8.17;6.70;;;16.20;99.90;;;;;;4988516;28;20419;-71
2023/09/09 03:11:17;;;;;;;7.10;6.40;;;16.20;99.90;;;;;;4988187;28;20463;-69
2023/09/09 03:14:02;;;;;;;18.60;6.93;;;16.30;99.90;;;;;;4985771;28;20417;-69
2023/09/09 03:16:48;;;;;;;9.67;7.00;;;16.20;99.90;;;;;;4985483;28;20484;-69
2023/09/09 03:19:35;;;;;;;9.30;6.90;;;16.30;99.90;;;;;;4984644;28;20441;-69
2023/09/09 03:22:21;;;;;;;16.23;6.90;;;16.40;99.90;;;;;;4986411;28;20487;-71
2023/09/09 03:25:08;;;;;;;8.70;6.57;;;16.50;99.90;;;;;;4987074;28;20521;-70
2023/09/09 03:27:53;;;;;;;8.70;6.17;;;16.50;99.90;;;;;;4987124;28;20491;-69
2023/09/09 03:30:55;;;;;;;8.33;6.20;;;16.40;99.90;;;;;;4986847;28;20561;-69
2023/09/09 03:33:41;;;;;;;8.63;6.47;;;16.50;99.90;;;;;;4986690;28;20452;-69
2023/09/09 03:36:28;;;;;;;7.63;5.93;;;16.40;99.90;;;;;;4985088;28;20451;-69
2023/09/09 03:39:14;;;;;;;10.90;6.53;;;16.40;99.90;;;;;;4986785;28;21051;-70
2023/09/09 03:41:59;;;;;;;7.03;6.03;;;16.30;99.90;;;;;;4987271;28;20466;-69
2023/09/09 03:44:45;;;;;;;8.87;6.40;;;16.30;99.90;;;;;;4987977;28;20448;-69
2023/09/09 03:47:30;;;;;;;7.87;6.63;;;16.20;99.90;;;;;;4984726;28;20595;-69
2023/09/09 03:50:16;;;;;;;13.73;6.47;;;16.10;99.90;;;;;;4988785;28;20585;-69
2023/09/09 03:53:04;;;;;;;7.83;6.90;;;16.10;99.90;;;;;;4985269;28;20450;-69
2023/09/09 03:55:49;;;;;;;8.73;6.37;;;16.10;99.90;;;;;;4988827;28;20491;-69
2023/09/09 03:58:35;;;;;;;8.50;6.50;;;16.00;99.90;;;;;;4980990;28;20446;-69
2023/09/09 04:01:21;;;;;;;10.70;6.07;;;16.00;99.90;;;;;;4987371;28;20475;-70
2023/09/09 04:04:07;;;;;;;8.97;6.17;;;16.00;99.90;;;;;;4988209;28;20422;-69
2023/09/09 04:06:52;;;;;;;6.33;5.73;;;16.00;99.90;;;;;;4985212;28;20466;-70
2023/09/09 04:09:41;;;;;;;7.40;6.43;;;16.10;99.90;;;;;;4987886;28;20418;-70
2023/09/09 04:12:26;;;;;;;10.23;5.90;;;16.10;99.90;;;;;;4985178;28;20635;-69
2023/09/09 04:15:12;;;;;;;5.67;5.07;;;16.10;99.90;;;;;;4987072;28;20423;-69
2023/09/09 04:17:58;;;;;;;6.37;5.43;;;16.10;99.90;;;;;;4987891;28;20441;-70
2023/09/09 04:20:44;;;;;;;6.93;6.23;;;16.10;99.90;;;;;;4985137;28;20517;-70
2023/09/09 04:23:30;;;;;;;9.87;6.23;;;16.20;99.90;;;;;;4987604;28;20436;-70
2023/09/09 04:26:17;;;;;;;6.60;5.50;;;16.20;99.90;;;;;;4982856;28;20522;-69
2023/09/09 04:29:03;;;;;;;7.00;5.57;;;16.30;99.90;;;;;;4987417;28;20526;-70
2023/09/09 04:31:49;;;;;;;14.67;5.90;;;16.30;99.90;;;;;;4986475;28;20433;-69
2023/09/09 04:34:34;;;;;;;8.73;5.80;;;16.30;99.90;;;;;;4988208;28;20652;-70
2023/09/09 04:37:20;;;;;;;9.50;5.80;;;16.20;99.90;;;;;;4985611;28;20891;-69
2023/09/09 04:40:10;;;;;;;8.80;6.67;;;16.20;99.90;;;;;;4984691;28;20524;-70
2023/09/09 04:42:57;;;;;;;7.47;5.80;;;16.10;99.90;;;;;;4981534;28;20470;-70
2023/09/09 04:45:42;;;;;;;7.00;5.83;;;16.00;99.90;;;;;;4983914;28;20483;-69
2023/09/09 04:48:28;;;;;;;7.20;5.93;;;15.90;99.90;;;;;;4987191;28;20526;-69
2023/09/09 04:51:13;;;;;;;6.93;5.97;;;15.90;99.90;;;;;;4986937;28;20465;-69
2023/09/09 04:53:59;;;;;;;6.33;5.40;;;15.90;99.90;;;;;;4987351;28;20979;-69
2023/09/09 04:56:46;;;;;;;9.83;5.53;;;15.90;99.90;;;;;;4983449;28;20585;-69
2023/09/09 04:59:33;;;;;;;10.07;6.00;;;15.90;99.90;;;;;;4992016;28;20817;-69
2023/09/09 05:02:19;;;;;;;7.33;6.37;;;15.90;99.90;;;;;;4989162;28;20477;-69
2023/09/09 05:05:05;;;;;;;7.33;6.60;;;15.80;99.90;;;;;;4986106;28;20568;-69
2023/09/09 05:07:51;;;;;;;6.80;5.93;;;15.80;99.90;;;;;;4988609;28;20458;-69
2023/09/09 05:10:37;;;;;;;10.20;7.27;;;15.80;99.90;;;;;;4988454;28;21153;-69
2023/09/09 05:13:23;;;;;;;7.30;6.30;;;15.80;99.90;;;;;;4990017;28;20422;-69
2023/09/09 05:16:10;;;;;;;10.53;7.10;;;15.80;99.90;;;;;;4991560;28;20426;-70
2023/09/09 05:18:55;;;;;;;9.73;7.17;;;15.90;99.90;;;;;;4988670;28;21204;-69
2023/09/09 05:21:41;;;;;;;7.20;6.40;;;15.90;99.90;;;;;;4989285;28;20445;-69
2023/09/09 05:24:26;;;;;;;7.73;6.93;;;15.90;99.90;;;;;;4991464;28;20543;-69
2023/09/09 05:27:12;;;;;;;8.83;6.33;;;16.00;99.90;;;;;;4987782;28;20819;-69
2023/09/09 05:29:58;;;;;;;8.20;7.00;;;16.00;99.90;;;;;;4987126;28;20798;-70
2023/09/09 05:32:45;;;;;;;6.63;5.93;;;15.90;99.90;;;;;;4983844;28;20947;-69
2023/09/09 05:35:30;;;;;;;7.07;5.70;;;16.00;99.90;;;;;;4988479;28;20809;-69
2023/09/09 05:38:16;;;;;;;10.97;5.63;;;16.10;99.90;;;;;;4991058;28;20441;-69
2023/09/09 05:41:02;;;;;;;7.70;6.10;;;16.20;99.90;;;;;;4986421;28;20494;-69
2023/09/09 05:43:47;;;;;;;6.57;5.87;;;16.20;99.90;;;;;;4989184;28;20420;-69
2023/09/09 05:46:33;;;;;;;7.57;6.33;;;16.30;99.90;;;;;;4988249;28;20797;-70
2023/09/09 05:49:21;;;;;;;7.33;6.30;;;16.40;99.90;;;;;;4983037;28;20495;-72
2023/09/09 05:52:07;;;;;;;9.47;5.77;;;16.40;99.90;;;;;;4988394;28;20471;-72
2023/09/09 05:54:53;;;;;;;9.30;7.17;;;16.50;99.90;;;;;;4987895;28;20454;-71
2023/09/09 05:57:39;;;;;;;8.90;7.23;;;16.50;99.90;;;;;;4987986;28;20856;-71
2023/09/09 06:00:24;;;;;;;8.83;6.67;;;16.60;99.90;;;;;;4987082;28;20419;-71
2023/09/09 06:03:10;;;;;;;7.67;6.83;;;16.70;99.90;;;;;;4983698;28;20450;-71
2023/09/09 06:05:57;;;;;;;7.00;6.30;;;16.70;99.90;;;;;;4990243;28;20832;-72
2023/09/09 06:08:43;;;;;;;7.40;6.60;;;16.80;99.90;;;;;;4988460;28;20451;-71
2023/09/09 06:11:29;;;;;;;7.07;6.20;;;16.90;99.90;;;;;;4985085;28;20476;-71
2023/09/09 06:14:14;;;;;;;10.30;7.43;;;16.90;99.90;;;;;;4990157;28;20444;-72
2023/09/09 06:17:00;;;;;;;7.67;6.87;;;16.90;99.90;;;;;;4986844;28;20534;-71
2023/09/09 06:19:46;;;;;;;9.47;6.87;;;16.90;99.90;;;;;;4987087;28;20933;-71
2023/09/09 06:22:34;;;;;;;7.47;5.63;;;16.90;99.90;;;;;;4987329;28;20464;-71
2023/09/09 06:25:21;;;;;;;8.33;6.80;;;17.00;99.90;;;;;;4986128;28;20526;-72
2023/09/09 06:28:07;;;;;;;7.87;6.50;;;17.00;99.90;;;;;;4988141;28;21072;-71
2023/09/09 06:30:52;;;;;;;6.70;5.27;;;17.00;99.90;;;;;;4987383;28;20432;-71
2023/09/09 06:33:38;;;;;;;7.20;6.50;;;17.10;99.90;;;;;;4989791;28;20539;-71
2023/09/09 06:36:24;;;;;;;8.30;6.20;;;17.20;99.90;;;;;;4987810;28;20414;-71
2023/09/09 06:39:11;;;;;;;10.43;6.40;;;17.20;99.90;;;;;;4984418;28;20464;-72
2023/09/09 06:41:56;;;;;;;7.10;6.03;;;17.20;99.90;;;;;;4987497;28;20513;-71
2023/09/09 06:44:42;;;;;;;7.63;5.90;;;17.20;99.90;;;;;;4988899;28;20452;-71
2023/09/09 06:47:27;;;;;;;6.83;6.13;;;17.30;99.90;;;;;;4989593;28;20574;-71
2023/09/09 06:50:13;;;;;;;6.87;5.87;;;17.40;99.90;;;;;;4989016;28;21003;-71
2023/09/09 06:52:59;;;;;;;13.43;6.53;;;17.40;99.90;;;;;;4988992;28;20546;-71
2023/09/09 06:55:47;;;;;;;7.90;7.10;;;17.50;99.90;;;;;;4986475;28;20495;-71
2023/09/09 06:58:32;;;;;;;8.80;7.10;;;17.50;99.90;;;;;;4987707;28;20498;-71
2023/09/09 07:01:18;;;;;;;9.67;6.87;;;17.70;99.90;;;;;;4988987;28;20472;-71
2023/09/09 07:04:04;;;;;;;9.67;6.97;;;17.80;99.90;;;;;;4991982;28;20440;-71
2023/09/09 07:06:50;;;;;;;9.27;6.83;;;17.90;99.90;;;;;;4986537;28;20600;-72
2023/09/09 07:09:35;;;;;;;8.60;7.40;;;18.10;99.90;;;;;;4988192;28;20448;-71
2023/09/09 07:12:22;;;;;;;9.47;7.30;;;18.20;99.90;;;;;;4991697;28;20456;-71
2023/09/09 07:15:09;;;;;;;8.23;6.90;;;18.20;99.90;;;;;;4990930;28;20437;-71
2023/09/09 07:17:55;;;;;;;20.90;7.40;;;18.30;99.90;;;;;;4985724;28;20423;-72
2023/09/09 07:20:42;;;;;;;8.20;6.93;;;18.40;99.90;;;;;;4985061;28;20452;-71
2023/09/09 07:23:27;;;;;;;9.47;7.13;;;18.50;99.90;;;;;;4985733;28;21007;-71
2023/09/09 07:26:13;;;;;;;8.17;7.30;;;18.70;99.90;;;;;;4987988;28;20483;-71
2023/09/09 07:29:01;;;;;;;9.40;8.20;;;18.90;99.90;;;;;;4987704;28;20464;-71
2023/09/09 07:31:46;;;;;;;9.17;8.20;;;19.00;99.90;;;;;;4987453;28;20469;-71
2023/09/09 07:34:32;;;;;;;9.70;7.90;;;19.10;99.90;;;;;;4984941;28;20465;-71
2023/09/09 07:37:19;;;;;;;7.93;7.13;;;19.20;99.90;;;;;;4985970;28;20441;-71
2023/09/09 07:40:05;;;;;;;11.37;8.50;;;19.20;99.90;;;;;;4984980;28;20528;-72
2023/09/09 07:42:51;;;;;;;7.53;6.77;;;19.40;99.90;;;;;;4987039;28;20968;-71
2023/09/09 07:45:38;;;;;;;13.97;8.47;;;19.60;99.90;;;;;;4988216;28;20455;-72
2023/09/09 07:48:23;;;;;;;8.87;7.63;;;19.60;99.90;;;;;;4986504;28;20462;-71
2023/09/09 07:51:09;;;;;;;9.40;6.90;;;19.80;99.90;;;;;;4984908;28;20493;-71
2023/09/09 07:53:55;;;;;;;8.63;7.53;;;19.90;99.90;;;;;;4986692;28;20976;-71
2023/09/09 07:56:45;;;;;;;15.83;8.40;;;20.10;99.90;;;;;;4988849;28;20446;-71
2023/09/09 07:59:30;;;;;;;9.83;8.17;;;20.20;99.90;;;;;;4990608;28;20535;-71
2023/09/09 08:02:17;;;;;;;8.57;7.60;;;20.40;99.90;;;;;;4986451;28;20469;-71
2023/09/09 08:05:03;;;;;;;10.57;7.63;;;20.50;99.90;;;;;;4987359;28;21047;-71
2023/09/09 08:07:49;;;;;;;10.83;9.23;;;20.60;99.90;;;;;;4985542;28;20467;-71
2023/09/09 08:10:35;;;;;;;9.23;8.30;;;20.70;99.90;;;;;;4988033;28;20445;-71
2023/09/09 08:13:21;;;;;;;10.57;8.30;;;20.80;99.90;;;;;;4987857;28;20448;-71
2023/09/09 08:16:06;;;;;;;9.30;7.87;;;20.90;99.90;;;;;;4986599;28;20465;-71
2023/09/09 08:18:54;;;;;;;8.80;7.43;;;21.10;99.90;;;;;;4986355;28;20804;-71
2023/09/09 08:21:39;;;;;;;9.23;8.33;;;21.20;99.90;;;;;;4986438;28;21846;-69
2023/09/09 08:24:25;;;;;;;8.73;7.83;;;21.30;99.90;;;;;;4988147;28;20445;-69
2023/09/09 08:27:12;;;;;;;11.43;8.20;;;21.40;99.90;;;;;;4983375;28;20537;-69
2023/09/09 08:29:58;;;;;;;13.90;9.10;;;21.50;99.90;;;;;;4986967;28;20961;-69
2023/09/09 08:32:44;;;;;;;9.53;7.60;;;21.60;99.90;;;;;;4990163;28;20477;-69
2023/09/09 08:35:32;;;;;;;10.73;8.40;;;21.70;99.90;;;;;;4987865;28;20446;-69
2023/09/09 08:38:18;;;;;;;13.10;9.80;;;21.90;99.90;;;;;;4989481;28;20453;-69
2023/09/09 08:41:07;;;;;;;11.10;9.90;;;22.00;99.90;;;;;;4991385;28;20446;-69
2023/09/09 08:44:00;;;;;;;11.03;9.27;;;22.20;99.90;;;;;;4989273;28;20453;-69
2023/09/09 08:46:45;;;;;;;10.83;9.63;;;22.40;99.90;;;;;;4990468;28;21193;-70
2023/09/09 08:49:34;;;;;;;9.33;8.40;;;22.50;99.90;;;;;;4990600;28;20445;-69
2023/09/09 08:52:27;;;;;;;10.50;9.40;;;22.70;99.90;;;;;;4983947;28;20482;-70
2023/09/09 08:55:12;;;;;;;12.40;9.53;;;22.80;99.90;;;;;;4988108;28;20420;-69
2023/09/09 08:57:58;;;;;;;8.67;7.83;;;22.90;99.90;;;;;;4988274;28;20451;-69
2023/09/09 09:00:44;;;;;;;19.10;10.90;;;23.10;99.90;;;;;;4986766;28;20544;-70
2023/09/09 09:03:30;;;;;;;13.70;9.87;;;23.10;99.90;;;;;;4989965;28;20464;-69
2023/09/09 09:06:16;;;;;;;11.63;9.17;;;23.20;99.90;;;;;;4985996;28;20444;-70
2023/09/09 09:09:04;;;;;;;10.63;9.20;;;23.30;99.90;;;;;;4988415;28;20562;-69
2023/09/09 09:11:51;;;;;;;12.20;8.73;;;23.40;99.90;;;;;;4991244;28;20463;-69
2023/09/09 09:14:46;;;;;;;9.80;8.70;;;23.60;99.90;;;;;;4991972;28;20624;-69
2023/09/09 09:17:32;;;;;;;9.63;8.40;;;23.70;99.90;;;;;;4987330;28;20443;-70
2023/09/09 09:20:26;;;;;;;10.80;8.70;;;23.80;99.90;;;;;;4990512;28;20815;-70
2023/09/09 09:23:13;;;;;;;9.00;8.10;;;23.90;99.90;;;;;;4990285;28;20475;-69
2023/09/09 09:26:00;;;;;;;10.80;9.50;;;24.00;99.90;;;;;;4990884;28;20831;-69
2023/09/09 09:28:46;;;;;;;13.20;8.90;;;24.10;99.90;;;;;;4990772;28;20434;-70
2023/09/09 09:31:32;;;;;;;8.93;8.07;;;24.20;99.90;;;;;;4988941;28;20608;-70
2023/09/09 09:34:18;;;;;;;9.63;8.63;;;24.30;99.90;;;;;;4987120;28;20444;-70
2023/09/09 09:37:09;;;;;;;10.00;8.90;;;24.40;99.90;;;;;;4987541;28;20456;-69
2023/09/09 09:39:55;;;;;;;12.97;9.60;;;24.50;99.90;;;;;;4991027;28;20441;-70
2023/09/09 09:42:43;;;;;;;9.70;8.70;;;24.60;99.90;;;;;;4991748;28;20572;-70
2023/09/09 09:45:30;;;;;;;12.83;10.10;;;24.70;99.90;;;;;;4987384;28;20437;-70
2023/09/09 09:48:26;;;;;;;12.50;8.53;;;24.80;99.90;;;;;;4987032;28;20475;-70
2023/09/09 09:51:12;;;;;;;14.10;9.40;;;24.90;99.90;;;;;;4987572;28;20499;-71
2023/09/09 09:53:57;;;;;;;10.90;9.70;;;25.00;99.90;;;;;;4989823;28;20460;-71
2023/09/09 09:56:45;;;;;;;10.53;9.43;;;25.00;99.90;;;;;;4986306;28;20446;-71
2023/09/09 09:59:33;;;;;;;14.43;9.00;;;25.10;99.90;;;;;;4989853;28;20490;-71
2023/09/09 10:02:20;;;;;;;14.40;8.90;;;25.20;99.90;;;;;;4983544;28;20473;-71
2023/09/09 10:05:08;;;;;;;11.10;9.90;;;25.30;99.90;;;;;;4988742;28;20475;-71
2023/09/09 10:07:57;;;;;;;11.40;10.30;;;25.30;99.90;;;;;;4989101;28;20893;-71
2023/09/09 10:10:49;;;;;;;15.17;10.50;;;25.40;99.80;;;;;;4990835;28;20444;-71
2023/09/09 10:13:38;;;;;;;15.80;9.80;;;25.40;99.90;;;;;;4990188;28;20463;-71
2023/09/09 10:16:26;;;;;;;16.20;9.80;;;25.50;99.90;;;;;;4990068;28;20453;-71
2023/09/09 10:19:13;;;;;;;12.23;9.20;;;25.70;99.90;;;;;;4987463;28;20991;-71
2023/09/09 10:22:00;;;;;;;12.10;9.70;;;25.80;99.90;;;;;;4988880;28;20466;-70
2023/09/09 10:24:47;;;;;;;15.27;10.10;;;25.80;95.80;;;;;;4989027;28;20446;-70
2023/09/09 10:27:34;;;;;;;15.83;9.33;;;25.90;96.30;;;;;;4990361;28;20473;-71
2023/09/09 10:30:21;;;;;;;11.80;10.07;;;25.90;94.30;;;;;;4987542;28;20949;-70
2023/09/09 10:33:11;;;;;;;12.20;10.00;;;26.00;97.00;;;;;;4988475;28;20474;-70
2023/09/09 10:35:59;;;;;;;10.40;9.30;;;26.00;93.70;;;;;;4987319;28;20447;-71
2023/09/09 10:38:45;;;;;;;13.20;9.10;;;26.00;90.90;;;;;;4986799;28;20958;-70
2023/09/09 10:41:31;;;;;;;11.07;9.80;;;26.10;91.70;;;;;;4988763;28;21017;-70
2023/09/09 10:44:17;;;;;;;11.40;10.23;;;26.20;88.00;;;;;;4987959;28;20472;-71
2023/09/09 10:47:08;;;;;;;11.10;9.37;;;26.30;87.90;;;;;;4987908;28;20516;-71
2023/09/09 10:50:06;;;;;;;10.10;8.90;;;26.30;90.30;;;;;;4983063;28;20492;-71
2023/09/09 10:53:16;;;;;;;11.40;9.50;;;26.40;89.50;;;;;;4989904;28;20481;-70
2023/09/09 10:56:23;;;;;;;14.67;9.43;;;26.50;86.00;;;;;;4985486;28;20584;-71
2023/09/09 10:59:17;;;;;;;13.07;9.67;;;26.60;80.70;;;;;;4988905;28;20453;-71
2023/09/09 11:02:13;;;;;;;10.63;9.53;;;26.70;77.80;;;;;;4989971;28;20538;-70
2023/09/09 11:05:10;;;;;;;16.33;10.00;;;26.80;80.80;;;;;;4986914;28;20477;-71
2023/09/09 11:07:57;;;;;;;11.10;9.00;;;27.00;81.80;;;;;;4987460;28;20469;-70
2023/09/09 11:10:42;;;;;;;10.80;9.73;;;27.10;81.90;;;;;;4987913;28;20493;-71
2023/09/09 11:13:41;;;;;;;10.83;9.37;;;27.20;80.10;;;;;;4987923;28;20466;-71
2023/09/09 11:16:31;;;;;;;12.83;9.57;;;27.20;76.00;;;;;;4989033;28;20442;-71
2023/09/09 11:19:17;;;;;;;14.13;9.63;;;27.20;73.00;;;;;;4985435;28;20465;-71
2023/09/09 11:22:05;;;;;;;10.70;8.80;;;27.20;75.70;;;;;;4989604;28;20473;-71
2023/09/09 11:24:52;;;;;;;12.53;9.30;;;27.30;78.80;;;;;;4986128;28;20475;-71
2023/09/09 11:27:39;;;;;;;13.00;10.07;;;27.30;74.20;;;;;;4988257;28;20528;-71
2023/09/09 11:30:25;;;;;;;10.10;8.90;;;27.30;74.00;;;;;;4987388;28;20450;-71
2023/09/09 11:33:20;;;;;;;12.47;9.40;;;27.30;73.50;;;;;;4980092;28;20501;-71
2023/09/09 11:36:06;;;;;;;10.57;8.93;;;27.30;67.60;;;;;;4986384;28;20947;-71
2023/09/09 11:38:53;;;;;;;17.40;9.57;;;27.30;66.40;;;;;;4986141;28;20594;-71
2023/09/09 11:41:40;;;;;;;9.70;8.07;;;27.30;68.40;;;;;;4987367;28;20486;-71
2023/09/09 11:44:25;;;;;;;10.40;8.60;;;27.40;68.70;;;;;;4988215;28;20447;-71
2023/09/09 11:47:11;;;;;;;9.43;8.30;;;27.50;62.80;;;;;;4987351;28;20588;-71
2023/09/09 11:49:57;;;;;;;13.60;8.43;;;27.70;65.70;;;;;;4983293;28;20489;-71
2023/09/09 11:52:43;;;;;;;12.07;8.50;;;27.70;62.30;;;;;;4985002;28;21020;-71
2023/09/09 11:55:29;;;;;;;14.83;8.03;;;27.80;53.60;;;;;;4986468;28;20855;-71
2023/09/09 11:58:16;;;;;;;10.37;8.77;;;27.70;56.30;;;;;;4987994;28;20464;-71
2023/09/09 12:01:02;;;;;;;11.30;8.10;;;27.70;51.80;;;;;;4985575;28;20734;-71
2023/09/09 12:03:49;;;;;;;9.37;7.67;;;27.80;53.60;;;;;;4986282;28;20531;-71
2023/09/09 12:06:36;;;;;;;9.73;7.60;;;27.90;56.00;;;;;;4983467;28;20445;-71
2023/09/09 12:09:22;;;;;;;11.30;7.23;;;27.90;55.80;;;;;;4989515;28;20920;-71
2023/09/09 12:12:08;;;;;;;8.97;8.03;;;28.00;54.20;;;;;;4983566;28;20474;-71
2023/09/09 12:14:57;;;;;;;11.93;7.70;;;28.10;48.00;;;;;;4983281;28;20463;-72
2023/09/09 12:17:42;;;;;;;8.47;7.60;;;28.20;55.60;;;;;;4985510;28;20440;-71
2023/09/09 12:20:28;;;;;;;9.43;7.53;;;28.20;50.10;;;;;;4986507;28;20449;-71
2023/09/09 12:23:27;;;;;;;12.00;7.90;;;28.20;42.80;;;;;;4985871;28;20970;-71
2023/09/09 12:26:14;;;;;;;9.27;7.60;;;28.30;39.60;;;;;;4984658;28;20450;-71
2023/09/09 12:29:07;;;;;;;9.40;7.43;;;28.30;37.30;;;;;;4986530;28;20479;-71
2023/09/09 12:31:55;;;;;;;9.00;8.00;;;28.40;41.00;;;;;;4986164;28;20636;-71
2023/09/09 12:34:44;;;;;;;8.67;7.87;;;28.40;37.80;;;;;;4987268;28;20444;-71
2023/09/09 12:37:30;;;;;;;8.20;7.33;;;28.60;42.60;;;;;;4985181;28;20525;-71
2023/09/09 12:40:16;;;;;;;8.87;7.97;;;28.80;40.70;;;;;;4982915;28;20443;-71
2023/09/09 12:43:10;;;;;;;9.30;6.90;;;28.90;39.90;;;;;;4985146;28;20465;-71
2023/09/09 12:46:05;;;;;;;8.73;7.40;;;29.10;40.60;;;;;;4987952;28;20581;-71
2023/09/09 12:48:54;;;;;;;10.60;7.40;;;29.30;35.90;;;;;;4982023;28;20484;-71
2023/09/09 12:51:40;;;;;;;10.20;7.90;;;29.50;35.80;;;;;;4986293;28;20498;-71
2023/09/09 12:54:25;;;;;;;8.43;7.50;;;29.50;29.90;;;;;;4986669;28;21089;-71
2023/09/09 12:57:11;;;;;;;8.90;8.00;;;29.30;29.00;;;;;;4985378;28;20447;-71
2023/09/09 12:59:57;;;;;;;9.80;7.00;;;29.20;29.10;;;;;;4985583;28;20810;-71
2023/09/09 13:02:42;;;;;;;11.97;8.00;;;29.40;29.00;;;;;;4982441;28;20840;-71
2023/09/09 13:05:30;;;;;;;9.30;7.40;;;29.60;30.20;;;;;;4986703;28;20438;-71
2023/09/09 13:08:15;;;;;;;11.80;7.43;;;29.90;29.50;;;;;;4985071;28;20537;-71
2023/09/09 13:11:01;;;;;;;10.73;7.60;;;30.30;29.50;;;;;;4986388;28;20506;-71
2023/09/09 13:13:47;;;;;;;12.23;8.23;;;30.50;28.50;;;;;;4984279;28;20465;-71
2023/09/09 13:16:32;;;;;;;8.87;6.70;;;30.60;26.50;;;;;;4985477;28;20598;-71
2023/09/09 13:19:19;;;;;;;9.13;7.10;;;30.70;25.80;;;;;;4988960;28;20463;-71
2023/09/09 13:22:06;;;;;;;11.00;6.80;;;30.40;24.70;;;;;;4990268;28;20843;-71
2023/09/09 13:24:52;;;;;;;11.37;7.07;;;30.50;23.70;;;;;;4991110;28;20908;-71
2023/09/09 13:27:38;;;;;;;16.20;7.07;;;30.60;25.00;;;;;;4989191;28;20592;-71
2023/09/09 13:30:24;;;;;;;8.10;7.30;;;30.70;26.50;;;;;;4987465;28;20442;-69
2023/09/09 13:33:09;;;;;;;9.27;7.30;;;30.80;26.70;;;;;;4988572;28;20591;-69
2023/09/09 13:35:55;;;;;;;8.80;6.83;;;31.00;24.60;;;;;;4990914;28;20447;-69
2023/09/09 13:38:42;;;;;;;8.30;6.73;;;31.20;22.90;;;;;;4988449;28;20438;-70
2023/09/09 13:41:29;;;;;;;8.10;7.00;;;31.00;19.30;;;;;;4990663;28;20480;-69
2023/09/09 13:44:15;;;;;;;6.80;6.10;;;30.50;20.80;;;;;;4988257;28;20939;-70
2023/09/09 13:47:01;;;;;;;9.90;6.70;;;30.70;22.60;;;;;;4986536;28;20450;-69
2023/09/09 13:49:47;;;;;;;7.90;6.63;;;31.00;21.60;;;;;;4990229;28;20473;-70
2023/09/09 13:52:33;;;;;;;10.13;6.53;;;31.30;20.40;;;;;;4985425;28;20474;-70
2023/09/09 13:55:20;;;;;;;8.67;6.07;;;31.50;20.90;;;;;;4990867;28;20453;-70
2023/09/09 13:58:06;;;;;;;8.17;6.50;;;31.30;18.20;;;;;;4989718;28;20443;-70
2023/09/09 14:00:52;;;;;;;10.70;7.00;;;31.20;17.90;;;;;;4988133;28;20448;-69
2023/09/09 14:03:37;;;;;;;7.70;6.23;;;31.10;17.90;;;;;;4986819;28;20453;-69
2023/09/09 14:06:23;;;;;;;13.20;7.80;;;31.40;17.20;;;;;;4979610;28;20527;-70
2023/09/09 14:09:08;;;;;;;10.63;7.60;;;31.60;18.00;;;;;;4987340;28;20469;-71
2023/09/09 14:11:57;;;;;;;9.40;6.40;;;31.70;20.30;;;;;;4990095;28;20468;-70
2023/09/09 14:14:42;;;;;;;19.60;7.30;;;31.70;19.30;;;;;;4983946;28;20447;-70
2023/09/09 14:17:28;;;;;;;10.20;7.73;;;31.90;18.60;;;;;;4985354;28;20444;-71
2023/09/09 14:20:14;;;;;;;12.73;7.17;;;32.00;19.00;;;;;;4983984;28;20446;-70
2023/09/09 14:23:00;;;;;;;13.33;7.57;;;31.90;19.90;;;;;;4982174;28;20823;-70
2023/09/09 14:25:45;;;;;;;8.27;6.20;;;32.00;20.10;;;;;;4985915;28;20620;-71